sensor_id;sensor_type;location;lat;lon;timestamp;temperature;humidity
9446;DHT22;4761;49.490;10.908;2023-04-06T00:00:54;17.00;35.30
9446;DHT22;4761;49.490;10.908;2023-04-06T00:03:20;17.10;35.40
9446;DHT22;4761;49.490;10.908;2023-04-06T00:05:47;17.10;35.30
9446;DHT22;4761;49.490;10.908;2023-04-06T00:08:13;17.00;35.20
9446;DHT22;4761;49.490;10.908;2023-04-06T00:10:38;17.00;35.20
9446;DHT22;4761;49.490;10.908;2023-04-06T00:13:05;17.00;35.20
9446;DHT22;4761;49.490;10.908;2023-04-06T00:15:30;17.00;35.30
9446;DHT22;4761;49.490;10.908;2023-04-06T00:17:56;17.00;35.30
9446;DHT22;4761;49.490;10.908;2023-04-06T00:20:22;17.00;35.20
9446;DHT22;4761;49.490;10.908;2023-04-06T00:22:47;17.00;35.20
9446;DHT22;4761;49.490;10.908;2023-04-06T00:25:13;17.00;35.20
9446;DHT22;4761;49.490;10.908;2023-04-06T00:27:41;17.00;35.20
9446;DHT22;4761;49.490;10.908;2023-04-06T00:30:07;17.10;35.30
9446;DHT22;4761;49.490;10.908;2023-04-06T00:32:34;17.00;35.20
9446;DHT22;4761;49.490;10.908;2023-04-06T00:35:01;17.00;35.20
9446;DHT22;4761;49.490;10.908;2023-04-06T00:37:27;17.00;35.20
9446;DHT22;4761;49.490;10.908;2023-04-06T00:39:52;17.00;35.20
9446;DHT22;4761;49.490;10.908;2023-04-06T00:42:18;16.90;35.10
9446;DHT22;4761;49.490;10.908;2023-04-06T00:44:54;17.00;35.30
9446;DHT22;4761;49.490;10.908;2023-04-06T00:47:21;17.00;35.20
9446;DHT22;4761;49.490;10.908;2023-04-06T00:49:47;17.00;35.20
9446;DHT22;4761;49.490;10.908;2023-04-06T00:52:13;16.90;35.10
9446;DHT22;4761;49.490;10.908;2023-04-06T00:54:38;16.90;35.10
9446;DHT22;4761;49.490;10.908;2023-04-06T00:57:04;16.90;35.10
9446;DHT22;4761;49.490;10.908;2023-04-06T00:59:30;17.00;35.20
9446;DHT22;4761;49.490;10.908;2023-04-06T01:01:56;16.90;35.20
9446;DHT22;4761;49.490;10.908;2023-04-06T01:04:22;16.90;35.20
9446;DHT22;4761;49.490;10.908;2023-04-06T01:06:50;16.90;35.20
9446;DHT22;4761;49.490;10.908;2023-04-06T01:09:16;17.00;35.20
9446;DHT22;4761;49.490;10.908;2023-04-06T01:11:42;16.90;35.10
9446;DHT22;4761;49.490;10.908;2023-04-06T01:14:08;16.90;35.20
9446;DHT22;4761;49.490;10.908;2023-04-06T01:16:34;16.90;35.20
9446;DHT22;4761;49.490;10.908;2023-04-06T01:19:00;16.90;35.10
9446;DHT22;4761;49.490;10.908;2023-04-06T01:21:26;16.90;35.10
9446;DHT22;4761;49.490;10.908;2023-04-06T01:23:51;17.00;35.20
9446;DHT22;4761;49.490;10.908;2023-04-06T01:26:17;16.90;35.10
9446;DHT22;4761;49.490;10.908;2023-04-06T01:28:43;17.00;35.20
9446;DHT22;4761;49.490;10.908;2023-04-06T01:31:09;17.10;35.20
9446;DHT22;4761;49.490;10.908;2023-04-06T01:33:35;17.10;35.10
9446;DHT22;4761;49.490;10.908;2023-04-06T01:36:01;17.10;35.10
9446;DHT22;4761;49.490;10.908;2023-04-06T01:38:27;17.10;35.00
9446;DHT22;4761;49.490;10.908;2023-04-06T01:40:53;17.10;35.50
9446;DHT22;4761;49.490;10.908;2023-04-06T01:43:19;17.10;34.80
9446;DHT22;4761;49.490;10.908;2023-04-06T01:45:44;17.10;34.80
9446;DHT22;4761;49.490;10.908;2023-04-06T01:48:10;17.10;34.80
9446;DHT22;4761;49.490;10.908;2023-04-06T01:50:35;17.10;34.80
9446;DHT22;4761;49.490;10.908;2023-04-06T01:53:01;17.10;34.80
9446;DHT22;4761;49.490;10.908;2023-04-06T01:55:27;17.10;34.80
9446;DHT22;4761;49.490;10.908;2023-04-06T01:57:52;17.00;34.80
9446;DHT22;4761;49.490;10.908;2023-04-06T02:00:18;17.00;34.80
9446;DHT22;4761;49.490;10.908;2023-04-06T02:02:43;17.00;34.80
9446;DHT22;4761;49.490;10.908;2023-04-06T02:05:09;17.00;34.80
9446;DHT22;4761;49.490;10.908;2023-04-06T02:07:35;17.10;35.00
9446;DHT22;4761;49.490;10.908;2023-04-06T02:10:00;17.00;34.90
9446;DHT22;4761;49.490;10.908;2023-04-06T02:12:26;17.00;34.80
9446;DHT22;4761;49.490;10.908;2023-04-06T02:14:51;17.00;34.80
9446;DHT22;4761;49.490;10.908;2023-04-06T02:17:17;17.00;34.80
9446;DHT22;4761;49.490;10.908;2023-04-06T02:19:43;17.00;34.90
9446;DHT22;4761;49.490;10.908;2023-04-06T02:22:09;17.00;34.90
9446;DHT22;4761;49.490;10.908;2023-04-06T02:24:35;17.00;34.90
9446;DHT22;4761;49.490;10.908;2023-04-06T02:27:01;17.00;34.90
9446;DHT22;4761;49.490;10.908;2023-04-06T02:29:26;17.00;35.00
9446;DHT22;4761;49.490;10.908;2023-04-06T02:31:52;17.00;34.90
9446;DHT22;4761;49.490;10.908;2023-04-06T02:34:17;17.00;34.90
9446;DHT22;4761;49.490;10.908;2023-04-06T02:36:44;17.00;34.90
9446;DHT22;4761;49.490;10.908;2023-04-06T02:39:10;17.00;34.80
9446;DHT22;4761;49.490;10.908;2023-04-06T02:41:36;17.00;34.80
9446;DHT22;4761;49.490;10.908;2023-04-06T02:44:03;17.00;34.70
9446;DHT22;4761;49.490;10.908;2023-04-06T02:46:28;17.00;34.80
9446;DHT22;4761;49.490;10.908;2023-04-06T02:48:54;17.00;34.80
9446;DHT22;4761;49.490;10.908;2023-04-06T02:51:20;16.90;34.70
9446;DHT22;4761;49.490;10.908;2023-04-06T02:53:46;16.90;34.80
9446;DHT22;4761;49.490;10.908;2023-04-06T02:56:11;16.90;34.80
9446;DHT22;4761;49.490;10.908;2023-04-06T02:58:37;17.00;34.80
9446;DHT22;4761;49.490;10.908;2023-04-06T03:01:03;17.00;34.70
9446;DHT22;4761;49.490;10.908;2023-04-06T03:03:29;17.00;35.30
9446;DHT22;4761;49.490;10.908;2023-04-06T03:05:55;16.90;34.70
9446;DHT22;4761;49.490;10.908;2023-04-06T03:08:23;16.90;34.70
9446;DHT22;4761;49.490;10.908;2023-04-06T03:10:49;16.90;34.70
9446;DHT22;4761;49.490;10.908;2023-04-06T03:13:15;16.90;34.80
9446;DHT22;4761;49.490;10.908;2023-04-06T03:15:41;16.90;34.90
9446;DHT22;4761;49.490;10.908;2023-04-06T03:18:06;16.90;34.80
9446;DHT22;4761;49.490;10.908;2023-04-06T03:20:32;16.90;34.70
9446;DHT22;4761;49.490;10.908;2023-04-06T03:22:58;16.90;34.80
9446;DHT22;4761;49.490;10.908;2023-04-06T03:25:23;16.90;34.80
9446;DHT22;4761;49.490;10.908;2023-04-06T03:27:49;16.90;34.80
9446;DHT22;4761;49.490;10.908;2023-04-06T03:30:15;16.90;34.70
9446;DHT22;4761;49.490;10.908;2023-04-06T03:32:45;16.80;34.70
9446;DHT22;4761;49.490;10.908;2023-04-06T03:35:11;16.90;34.80
9446;DHT22;4761;49.490;10.908;2023-04-06T03:37:36;16.90;34.80
9446;DHT22;4761;49.490;10.908;2023-04-06T03:40:03;16.90;34.80
9446;DHT22;4761;49.490;10.908;2023-04-06T03:42:29;16.90;34.70
9446;DHT22;4761;49.490;10.908;2023-04-06T03:44:55;16.90;34.70
9446;DHT22;4761;49.490;10.908;2023-04-06T03:47:20;16.90;34.80
9446;DHT22;4761;49.490;10.908;2023-04-06T03:49:46;16.80;34.60
9446;DHT22;4761;49.490;10.908;2023-04-06T03:52:11;16.80;34.60
9446;DHT22;4761;49.490;10.908;2023-04-06T03:54:37;16.90;34.70
9446;DHT22;4761;49.490;10.908;2023-04-06T03:57:03;16.80;34.60
9446;DHT22;4761;49.490;10.908;2023-04-06T03:59:29;16.90;34.70
9446;DHT22;4761;49.490;10.908;2023-04-06T04:01:54;16.90;34.70
9446;DHT22;4761;49.490;10.908;2023-04-06T04:04:20;16.80;35.20
9446;DHT22;4761;49.490;10.908;2023-04-06T04:06:45;16.80;34.60
9446;DHT22;4761;49.490;10.908;2023-04-06T04:09:11;16.80;34.60
9446;DHT22;4761;49.490;10.908;2023-04-06T04:11:37;16.80;34.60
9446;DHT22;4761;49.490;10.908;2023-04-06T04:14:02;16.80;34.70
9446;DHT22;4761;49.490;10.908;2023-04-06T04:16:28;16.80;34.80
9446;DHT22;4761;49.490;10.908;2023-04-06T04:18:54;16.80;34.70
9446;DHT22;4761;49.490;10.908;2023-04-06T04:21:19;16.80;34.60
9446;DHT22;4761;49.490;10.908;2023-04-06T04:23:45;16.80;34.60
9446;DHT22;4761;49.490;10.908;2023-04-06T04:26:10;16.80;34.60
9446;DHT22;4761;49.490;10.908;2023-04-06T04:28:36;16.90;34.70
9446;DHT22;4761;49.490;10.908;2023-04-06T04:31:02;16.80;34.60
9446;DHT22;4761;49.490;10.908;2023-04-06T04:33:27;16.80;34.80
9446;DHT22;4761;49.490;10.908;2023-04-06T04:35:53;16.80;34.70
9446;DHT22;4761;49.490;10.908;2023-04-06T04:38:18;16.80;34.70
9446;DHT22;4761;49.490;10.908;2023-04-06T04:40:44;16.80;34.70
9446;DHT22;4761;49.490;10.908;2023-04-06T04:43:10;16.80;34.70
9446;DHT22;4761;49.490;10.908;2023-04-06T04:45:36;16.80;34.60
9446;DHT22;4761;49.490;10.908;2023-04-06T04:48:01;16.80;34.70
9446;DHT22;4761;49.490;10.908;2023-04-06T04:50:27;16.80;34.70
9446;DHT22;4761;49.490;10.908;2023-04-06T04:52:52;16.80;34.70
9446;DHT22;4761;49.490;10.908;2023-04-06T04:55:19;16.80;34.60
9446;DHT22;4761;49.490;10.908;2023-04-06T04:57:44;16.80;34.70
9446;DHT22;4761;49.490;10.908;2023-04-06T05:00:10;16.70;34.70
9446;DHT22;4761;49.490;10.908;2023-04-06T05:02:36;16.70;35.20
9446;DHT22;4761;49.490;10.908;2023-04-06T05:05:02;16.70;34.60
9446;DHT22;4761;49.490;10.908;2023-04-06T05:07:27;16.70;34.60
9446;DHT22;4761;49.490;10.908;2023-04-06T05:09:53;16.80;34.80
9446;DHT22;4761;49.490;10.908;2023-04-06T05:12:19;16.70;34.70
9446;DHT22;4761;49.490;10.908;2023-04-06T05:14:45;16.70;34.50
9446;DHT22;4761;49.490;10.908;2023-04-06T05:17:10;16.80;34.70
9446;DHT22;4761;49.490;10.908;2023-04-06T05:19:36;16.70;34.60
9446;DHT22;4761;49.490;10.908;2023-04-06T05:22:02;16.70;34.50
9446;DHT22;4761;49.490;10.908;2023-04-06T05:24:27;16.80;34.70
9446;DHT22;4761;49.490;10.908;2023-04-06T05:26:53;16.70;34.60
9446;DHT22;4761;49.490;10.908;2023-04-06T05:29:19;16.80;34.80
9446;DHT22;4761;49.490;10.908;2023-04-06T05:31:45;16.80;34.70
9446;DHT22;4761;49.490;10.908;2023-04-06T05:34:11;16.80;34.60
9446;DHT22;4761;49.490;10.908;2023-04-06T05:36:38;16.90;34.70
9446;DHT22;4761;49.490;10.908;2023-04-06T05:39:03;16.90;34.80
9446;DHT22;4761;49.490;10.908;2023-04-06T05:41:29;16.80;29.40
9446;DHT22;4761;49.490;10.908;2023-04-06T05:43:54;16.70;27.90
9446;DHT22;4761;49.490;10.908;2023-04-06T05:46:20;16.60;27.60
9446;DHT22;4761;49.490;10.908;2023-04-06T05:48:46;16.50;27.70
9446;DHT22;4761;49.490;10.908;2023-04-06T05:51:11;16.60;27.70
9446;DHT22;4761;49.490;10.908;2023-04-06T05:53:37;16.60;27.60
9446;DHT22;4761;49.490;10.908;2023-04-06T05:56:04;16.70;27.40
9446;DHT22;4761;49.490;10.908;2023-04-06T05:58:30;16.70;27.10
9446;DHT22;4761;49.490;10.908;2023-04-06T06:01:00;16.80;26.90
9446;DHT22;4761;49.490;10.908;2023-04-06T06:03:26;16.90;26.60
9446;DHT22;4761;49.490;10.908;2023-04-06T06:05:51;17.00;26.40
9446;DHT22;4761;49.490;10.908;2023-04-06T06:08:17;17.10;26.80
9446;DHT22;4761;49.490;10.908;2023-04-06T06:10:42;17.20;26.20
9446;DHT22;4761;49.490;10.908;2023-04-06T06:13:08;17.30;26.10
9446;DHT22;4761;49.490;10.908;2023-04-06T06:15:34;17.30;25.90
9446;DHT22;4761;49.490;10.908;2023-04-06T06:18:00;17.40;25.90
9446;DHT22;4761;49.490;10.908;2023-04-06T06:20:27;17.50;25.90
9446;DHT22;4761;49.490;10.908;2023-04-06T06:22:52;17.50;25.80
9446;DHT22;4761;49.490;10.908;2023-04-06T06:25:18;17.60;25.90
9446;DHT22;4761;49.490;10.908;2023-04-06T06:27:44;17.70;25.90
9446;DHT22;4761;49.490;10.908;2023-04-06T06:30:09;17.70;25.90
9446;DHT22;4761;49.490;10.908;2023-04-06T06:32:35;17.80;26.00
9446;DHT22;4761;49.490;10.908;2023-04-06T06:35:01;17.80;26.00
9446;DHT22;4761;49.490;10.908;2023-04-06T06:37:26;17.80;26.00
9446;DHT22;4761;49.490;10.908;2023-04-06T06:39:52;17.90;26.10
9446;DHT22;4761;49.490;10.908;2023-04-06T06:42:18;17.90;26.10
9446;DHT22;4761;49.490;10.908;2023-04-06T06:44:43;17.90;26.10
9446;DHT22;4761;49.490;10.908;2023-04-06T06:47:09;17.90;26.00
9446;DHT22;4761;49.490;10.908;2023-04-06T06:49:34;18.00;26.00
9446;DHT22;4761;49.490;10.908;2023-04-06T06:52:00;18.00;25.90
9446;DHT22;4761;49.490;10.908;2023-04-06T06:54:26;18.00;25.80
9446;DHT22;4761;49.490;10.908;2023-04-06T06:56:51;18.10;25.90
9446;DHT22;4761;49.490;10.908;2023-04-06T06:59:17;18.10;25.80
9446;DHT22;4761;49.490;10.908;2023-04-06T07:01:43;18.10;25.70
9446;DHT22;4761;49.490;10.908;2023-04-06T07:04:08;18.10;25.60
9446;DHT22;4761;49.490;10.908;2023-04-06T07:06:37;18.00;25.50
9446;DHT22;4761;49.490;10.908;2023-04-06T07:09:02;18.10;25.50
9446;DHT22;4761;49.490;10.908;2023-04-06T07:11:29;18.10;25.40
9446;DHT22;4761;49.490;10.908;2023-04-06T07:13:55;18.10;25.40
9446;DHT22;4761;49.490;10.908;2023-04-06T07:16:20;18.10;25.30
9446;DHT22;4761;49.490;10.908;2023-04-06T07:18:46;18.30;25.20
9446;DHT22;4761;49.490;10.908;2023-04-06T07:21:11;18.30;25.10
9446;DHT22;4761;49.490;10.908;2023-04-06T07:23:37;18.30;25.10
9446;DHT22;4761;49.490;10.908;2023-04-06T07:26:03;18.30;25.10
9446;DHT22;4761;49.490;10.908;2023-04-06T07:28:28;18.30;25.10
9446;DHT22;4761;49.490;10.908;2023-04-06T07:30:54;18.30;25.00
9446;DHT22;4761;49.490;10.908;2023-04-06T07:33:20;18.30;25.10
9446;DHT22;4761;49.490;10.908;2023-04-06T07:35:46;18.30;25.00
9446;DHT22;4761;49.490;10.908;2023-04-06T07:38:11;18.30;24.90
9446;DHT22;4761;49.490;10.908;2023-04-06T07:40:37;18.30;24.90
9446;DHT22;4761;49.490;10.908;2023-04-06T07:43:03;18.30;25.00
9446;DHT22;4761;49.490;10.908;2023-04-06T07:45:29;18.30;24.90
9446;DHT22;4761;49.490;10.908;2023-04-06T07:47:54;18.30;24.90
9446;DHT22;4761;49.490;10.908;2023-04-06T07:50:21;18.30;24.90
9446;DHT22;4761;49.490;10.908;2023-04-06T07:52:46;18.30;24.90
9446;DHT22;4761;49.490;10.908;2023-04-06T07:55:12;18.30;24.90
9446;DHT22;4761;49.490;10.908;2023-04-06T07:57:37;18.30;24.80
9446;DHT22;4761;49.490;10.908;2023-04-06T08:00:03;18.30;24.80
9446;DHT22;4761;49.490;10.908;2023-04-06T08:02:31;18.30;24.80
9446;DHT22;4761;49.490;10.908;2023-04-06T08:04:56;18.40;32.00
9446;DHT22;4761;49.490;10.908;2023-04-06T08:07:22;18.40;32.20
9446;DHT22;4761;49.490;10.908;2023-04-06T08:09:47;18.40;32.40
9446;DHT22;4761;49.490;10.908;2023-04-06T08:12:14;18.30;32.60
9446;DHT22;4761;49.490;10.908;2023-04-06T08:14:40;18.20;32.70
9446;DHT22;4761;49.490;10.908;2023-04-06T08:17:05;18.10;32.90
9446;DHT22;4761;49.490;10.908;2023-04-06T08:19:31;18.00;33.10
9446;DHT22;4761;49.490;10.908;2023-04-06T08:21:56;17.90;33.20
9446;DHT22;4761;49.490;10.908;2023-04-06T08:24:22;17.90;33.50
9446;DHT22;4761;49.490;10.908;2023-04-06T08:26:48;17.80;33.50
9446;DHT22;4761;49.490;10.908;2023-04-06T08:29:13;17.80;33.60
9446;DHT22;4761;49.490;10.908;2023-04-06T08:31:39;17.80;33.70
9446;DHT22;4761;49.490;10.908;2023-04-06T08:34:05;17.70;33.90
9446;DHT22;4761;49.490;10.908;2023-04-06T08:36:31;17.70;33.90
9446;DHT22;4761;49.490;10.908;2023-04-06T08:38:57;17.70;34.00
9446;DHT22;4761;49.490;10.908;2023-04-06T08:41:22;17.60;33.90
9446;DHT22;4761;49.490;10.908;2023-04-06T08:43:52;17.60;33.90
9446;DHT22;4761;49.490;10.908;2023-04-06T08:46:20;17.70;34.00
9446;DHT22;4761;49.490;10.908;2023-04-06T08:48:47;17.60;34.00
9446;DHT22;4761;49.490;10.908;2023-04-06T08:51:15;17.70;34.10
9446;DHT22;4761;49.490;10.908;2023-04-06T08:53:41;17.60;34.00
9446;DHT22;4761;49.490;10.908;2023-04-06T08:56:07;17.60;34.20
9446;DHT22;4761;49.490;10.908;2023-04-06T08:58:39;17.70;34.20
9446;DHT22;4761;49.490;10.908;2023-04-06T09:01:08;17.70;34.10
9446;DHT22;4761;49.490;10.908;2023-04-06T09:03:40;17.70;34.20
9446;DHT22;4761;49.490;10.908;2023-04-06T09:06:06;17.70;34.20
9446;DHT22;4761;49.490;10.908;2023-04-06T09:08:37;17.70;34.30
9446;DHT22;4761;49.490;10.908;2023-04-06T09:11:03;17.70;34.20
9446;DHT22;4761;49.490;10.908;2023-04-06T09:13:29;17.70;34.20
9446;DHT22;4761;49.490;10.908;2023-04-06T09:16:02;17.70;34.10
9446;DHT22;4761;49.490;10.908;2023-04-06T09:18:32;17.70;34.10
9446;DHT22;4761;49.490;10.908;2023-04-06T09:21:05;17.70;34.10
9446;DHT22;4761;49.490;10.908;2023-04-06T09:23:31;17.70;34.10
9446;DHT22;4761;49.490;10.908;2023-04-06T09:28:50;17.70;34.00
9446;DHT22;4761;49.490;10.908;2023-04-06T09:31:21;17.80;34.10
9446;DHT22;4761;49.490;10.908;2023-04-06T09:33:47;17.80;34.00
9446;DHT22;4761;49.490;10.908;2023-04-06T09:36:13;17.70;33.90
9446;DHT22;4761;49.490;10.908;2023-04-06T09:38:55;17.80;33.90
9446;DHT22;4761;49.490;10.908;2023-04-06T09:41:28;17.80;33.80
9446;DHT22;4761;49.490;10.908;2023-04-06T09:44:05;17.80;33.80
9446;DHT22;4761;49.490;10.908;2023-04-06T09:46:39;17.80;33.80
9446;DHT22;4761;49.490;10.908;2023-04-06T09:49:06;17.80;33.80
9446;DHT22;4761;49.490;10.908;2023-04-06T09:51:37;17.80;33.80
9446;DHT22;4761;49.490;10.908;2023-04-06T09:54:03;17.80;33.80
9446;DHT22;4761;49.490;10.908;2023-04-06T09:57:31;17.80;33.80
9446;DHT22;4761;49.490;10.908;2023-04-06T09:59:55;17.80;34.00
9446;DHT22;4761;49.490;10.908;2023-04-06T10:02:39;17.80;34.10
9446;DHT22;4761;49.490;10.908;2023-04-06T10:05:12;17.90;34.30
9446;DHT22;4761;49.490;10.908;2023-04-06T10:07:40;17.90;34.30
9446;DHT22;4761;49.490;10.908;2023-04-06T10:10:07;17.90;34.20
9446;DHT22;4761;49.490;10.908;2023-04-06T10:12:33;17.90;34.10
9446;DHT22;4761;49.490;10.908;2023-04-06T10:14:59;17.90;34.00
9446;DHT22;4761;49.490;10.908;2023-04-06T10:17:25;17.90;34.00
9446;DHT22;4761;49.490;10.908;2023-04-06T10:19:59;17.90;34.00
9446;DHT22;4761;49.490;10.908;2023-04-06T10:22:36;17.90;34.00
9446;DHT22;4761;49.490;10.908;2023-04-06T10:25:04;17.90;34.00
9446;DHT22;4761;49.490;10.908;2023-04-06T10:27:30;17.90;33.90
9446;DHT22;4761;49.490;10.908;2023-04-06T10:30:02;17.90;33.90
9446;DHT22;4761;49.490;10.908;2023-04-06T10:32:36;17.90;34.00
9446;DHT22;4761;49.490;10.908;2023-04-06T10:35:06;17.90;33.90
9446;DHT22;4761;49.490;10.908;2023-04-06T10:37:52;17.90;33.90
9446;DHT22;4761;49.490;10.908;2023-04-06T10:40:27;17.90;33.90
9446;DHT22;4761;49.490;10.908;2023-04-06T10:42:54;18.00;34.00
9446;DHT22;4761;49.490;10.908;2023-04-06T10:45:25;18.00;33.90
9446;DHT22;4761;49.490;10.908;2023-04-06T10:47:53;17.90;33.80
9446;DHT22;4761;49.490;10.908;2023-04-06T10:50:19;18.00;34.00
9446;DHT22;4761;49.490;10.908;2023-04-06T10:52:45;18.00;33.90
9446;DHT22;4761;49.490;10.908;2023-04-06T10:55:16;17.90;33.80
9446;DHT22;4761;49.490;10.908;2023-04-06T10:57:41;17.90;33.80
9446;DHT22;4761;49.490;10.908;2023-04-06T11:00:08;18.00;33.90
9446;DHT22;4761;49.490;10.908;2023-04-06T11:02:35;17.90;33.80
9446;DHT22;4761;49.490;10.908;2023-04-06T11:05:03;18.00;33.80
9446;DHT22;4761;49.490;10.908;2023-04-06T11:07:28;18.00;34.50
9446;DHT22;4761;49.490;10.908;2023-04-06T11:09:56;18.00;33.90
9446;DHT22;4761;49.490;10.908;2023-04-06T11:12:25;18.00;33.80
9446;DHT22;4761;49.490;10.908;2023-04-06T11:14:58;18.00;33.80
9446;DHT22;4761;49.490;10.908;2023-04-06T11:17:36;18.00;33.80
9446;DHT22;4761;49.490;10.908;2023-04-06T11:20:03;18.00;33.70
9446;DHT22;4761;49.490;10.908;2023-04-06T11:22:30;18.00;33.80
9446;DHT22;4761;49.490;10.908;2023-04-06T11:25:08;18.00;33.80
9446;DHT22;4761;49.490;10.908;2023-04-06T11:27:34;18.00;33.80
9446;DHT22;4761;49.490;10.908;2023-04-06T11:30:01;18.00;33.80
9446;DHT22;4761;49.490;10.908;2023-04-06T11:32:28;18.00;33.70
9446;DHT22;4761;49.490;10.908;2023-04-06T11:34:53;18.00;33.70
9446;DHT22;4761;49.490;10.908;2023-04-06T11:37:19;18.00;33.70
9446;DHT22;4761;49.490;10.908;2023-04-06T11:39:50;18.10;33.70
9446;DHT22;4761;49.490;10.908;2023-04-06T11:42:28;18.10;33.60
9446;DHT22;4761;49.490;10.908;2023-04-06T11:44:58;18.10;33.50
9446;DHT22;4761;49.490;10.908;2023-04-06T11:47:33;18.10;33.40
9446;DHT22;4761;49.490;10.908;2023-04-06T11:50:10;18.10;33.40
9446;DHT22;4761;49.490;10.908;2023-04-06T11:52:36;18.10;33.30
9446;DHT22;4761;49.490;10.908;2023-04-06T11:55:13;18.10;33.10
9446;DHT22;4761;49.490;10.908;2023-04-06T11:57:40;18.10;33.30
9446;DHT22;4761;49.490;10.908;2023-04-06T12:00:07;18.10;33.20
9446;DHT22;4761;49.490;10.908;2023-04-06T12:02:35;18.10;33.20
9446;DHT22;4761;49.490;10.908;2023-04-06T12:05:02;18.10;33.20
9446;DHT22;4761;49.490;10.908;2023-04-06T12:07:29;18.10;33.20
9446;DHT22;4761;49.490;10.908;2023-04-06T12:09:55;18.10;33.20
9446;DHT22;4761;49.490;10.908;2023-04-06T12:12:20;18.10;33.30
9446;DHT22;4761;49.490;10.908;2023-04-06T12:14:46;18.10;33.30
9446;DHT22;4761;49.490;10.908;2023-04-06T12:17:11;18.10;33.30
9446;DHT22;4761;49.490;10.908;2023-04-06T12:19:37;18.10;33.30
9446;DHT22;4761;49.490;10.908;2023-04-06T12:22:03;18.10;33.30
9446;DHT22;4761;49.490;10.908;2023-04-06T12:24:28;18.10;33.40
9446;DHT22;4761;49.490;10.908;2023-04-06T12:26:55;18.10;33.30
9446;DHT22;4761;49.490;10.908;2023-04-06T12:29:20;18.10;33.40
9446;DHT22;4761;49.490;10.908;2023-04-06T12:31:46;18.20;33.40
9446;DHT22;4761;49.490;10.908;2023-04-06T12:34:11;18.10;33.40
9446;DHT22;4761;49.490;10.908;2023-04-06T12:36:37;18.20;33.50
9446;DHT22;4761;49.490;10.908;2023-04-06T12:39:04;18.20;33.50
9446;DHT22;4761;49.490;10.908;2023-04-06T12:41:30;18.20;33.50
9446;DHT22;4761;49.490;10.908;2023-04-06T12:43:56;18.20;33.50
9446;DHT22;4761;49.490;10.908;2023-04-06T12:46:22;18.20;33.50
9446;DHT22;4761;49.490;10.908;2023-04-06T12:48:48;18.20;33.50
9446;DHT22;4761;49.490;10.908;2023-04-06T12:51:14;18.20;33.50
9446;DHT22;4761;49.490;10.908;2023-04-06T12:53:40;18.20;33.40
9446;DHT22;4761;49.490;10.908;2023-04-06T12:56:13;18.20;33.40
9446;DHT22;4761;49.490;10.908;2023-04-06T12:58:39;18.20;33.40
9446;DHT22;4761;49.490;10.908;2023-04-06T13:01:07;18.20;33.50
9446;DHT22;4761;49.490;10.908;2023-04-06T13:03:33;18.20;33.50
9446;DHT22;4761;49.490;10.908;2023-04-06T13:05:59;18.20;33.40
9446;DHT22;4761;49.490;10.908;2023-04-06T13:08:25;18.20;33.50
9446;DHT22;4761;49.490;10.908;2023-04-06T13:10:51;18.20;33.50
9446;DHT22;4761;49.490;10.908;2023-04-06T13:13:25;18.20;33.50
9446;DHT22;4761;49.490;10.908;2023-04-06T13:15:52;18.20;33.60
9446;DHT22;4761;49.490;10.908;2023-04-06T13:18:18;18.20;33.70
9446;DHT22;4761;49.490;10.908;2023-04-06T13:20:45;18.20;33.70
9446;DHT22;4761;49.490;10.908;2023-04-06T13:23:11;18.20;33.60
9446;DHT22;4761;49.490;10.908;2023-04-06T13:25:37;18.20;33.60
9446;DHT22;4761;49.490;10.908;2023-04-06T13:28:02;18.20;33.70
9446;DHT22;4761;49.490;10.908;2023-04-06T13:30:28;18.20;33.70
9446;DHT22;4761;49.490;10.908;2023-04-06T13:32:54;18.20;33.60
9446;DHT22;4761;49.490;10.908;2023-04-06T13:35:19;18.20;33.70
9446;DHT22;4761;49.490;10.908;2023-04-06T13:37:45;18.20;33.70
9446;DHT22;4761;49.490;10.908;2023-04-06T13:40:11;18.20;33.70
9446;DHT22;4761;49.490;10.908;2023-04-06T13:42:37;18.20;33.70
9446;DHT22;4761;49.490;10.908;2023-04-06T13:45:05;18.20;33.70
9446;DHT22;4761;49.490;10.908;2023-04-06T13:47:31;18.30;33.80
9446;DHT22;4761;49.490;10.908;2023-04-06T13:49:56;18.30;33.80
9446;DHT22;4761;49.490;10.908;2023-04-06T13:52:22;18.20;33.60
9446;DHT22;4761;49.490;10.908;2023-04-06T13:54:51;18.30;33.80
9446;DHT22;4761;49.490;10.908;2023-04-06T13:57:16;18.30;33.80
9446;DHT22;4761;49.490;10.908;2023-04-06T13:59:42;18.30;33.80
9446;DHT22;4761;49.490;10.908;2023-04-06T14:02:09;18.30;33.90
9446;DHT22;4761;49.490;10.908;2023-04-06T14:04:35;18.30;33.90
9446;DHT22;4761;49.490;10.908;2023-04-06T14:07:01;18.20;33.80
9446;DHT22;4761;49.490;10.908;2023-04-06T14:09:28;18.30;33.90
9446;DHT22;4761;49.490;10.908;2023-04-06T14:11:54;18.30;33.90
9446;DHT22;4761;49.490;10.908;2023-04-06T14:14:20;18.30;33.80
9446;DHT22;4761;49.490;10.908;2023-04-06T14:16:46;18.30;33.80
9446;DHT22;4761;49.490;10.908;2023-04-06T14:19:14;18.30;33.80
9446;DHT22;4761;49.490;10.908;2023-04-06T14:21:41;18.30;33.70
9446;DHT22;4761;49.490;10.908;2023-04-06T14:24:07;18.30;33.70
9446;DHT22;4761;49.490;10.908;2023-04-06T14:26:34;18.40;33.70
9446;DHT22;4761;49.490;10.908;2023-04-06T14:29:00;18.40;33.60
9446;DHT22;4761;49.490;10.908;2023-04-06T14:31:26;18.40;33.70
9446;DHT22;4761;49.490;10.908;2023-04-06T14:33:52;18.40;33.70
9446;DHT22;4761;49.490;10.908;2023-04-06T14:36:18;18.40;33.70
9446;DHT22;4761;49.490;10.908;2023-04-06T14:38:43;18.40;33.80
9446;DHT22;4761;49.490;10.908;2023-04-06T14:41:23;18.40;33.80
9446;DHT22;4761;49.490;10.908;2023-04-06T14:43:49;18.30;33.70
9446;DHT22;4761;49.490;10.908;2023-04-06T14:46:15;18.40;33.80
9446;DHT22;4761;49.490;10.908;2023-04-06T14:48:43;18.40;33.80
9446;DHT22;4761;49.490;10.908;2023-04-06T14:51:10;18.30;33.70
9446;DHT22;4761;49.490;10.908;2023-04-06T14:53:36;18.30;33.60
9446;DHT22;4761;49.490;10.908;2023-04-06T14:56:02;18.30;33.60
9446;DHT22;4761;49.490;10.908;2023-04-06T14:58:27;18.30;33.60
9446;DHT22;4761;49.490;10.908;2023-04-06T15:01:00;18.30;33.60
9446;DHT22;4761;49.490;10.908;2023-04-06T15:03:29;18.30;33.70
9446;DHT22;4761;49.490;10.908;2023-04-06T15:05:58;18.30;33.70
9446;DHT22;4761;49.490;10.908;2023-04-06T15:08:23;18.30;33.70
9446;DHT22;4761;49.490;10.908;2023-04-06T15:10:50;18.30;33.60
9446;DHT22;4761;49.490;10.908;2023-04-06T15:13:16;18.30;33.50
9446;DHT22;4761;49.490;10.908;2023-04-06T15:15:42;18.30;33.60
9446;DHT22;4761;49.490;10.908;2023-04-06T15:18:08;18.30;33.60
9446;DHT22;4761;49.490;10.908;2023-04-06T15:20:34;18.30;34.00
9446;DHT22;4761;49.490;10.908;2023-04-06T15:23:01;18.30;33.70
9446;DHT22;4761;49.490;10.908;2023-04-06T15:25:27;18.30;33.60
9446;DHT22;4761;49.490;10.908;2023-04-06T15:27:54;18.30;33.60
9446;DHT22;4761;49.490;10.908;2023-04-06T15:30:20;18.30;33.60
9446;DHT22;4761;49.490;10.908;2023-04-06T15:33:11;18.30;33.60
9446;DHT22;4761;49.490;10.908;2023-04-06T15:35:37;18.20;33.50
9446;DHT22;4761;49.490;10.908;2023-04-06T15:38:05;18.20;33.50
9446;DHT22;4761;49.490;10.908;2023-04-06T15:40:31;18.30;33.60
9446;DHT22;4761;49.490;10.908;2023-04-06T15:42:57;18.30;33.50
9446;DHT22;4761;49.490;10.908;2023-04-06T15:45:23;18.30;33.50